KAL2192 RJFU-RKSI
Flight info
| Callsign | KAL2192 |
|---|---|
| Flight time | 1h 9m |
| Altitude | 32000 |
| Route | DCT DGC G339 BEETL Y208 INVOK Z91 PSN Y782 BITUX Z53 BASEM Y685 GUKDO DCT |
| Aircraft | A21N/M-SDE2FGHIJ1J3J4J7M3P2RWXYZ/LB2D1G1 |
Departure
| Time | 2026-04-24 04:48 |
|---|---|
| Airport | Nagasaki Airport (RJFU) |
Arrival
| Time | 2026-04-24 05:57 |
|---|---|
| Airport | Incheon International Airport (RKSI) |
| Time | Latitude | Longitude | Altitude | Speed | Heading |
|---|---|---|---|---|---|
| 2026-04-24 04:05 | 32.91471 | 129.92087 | 24 ft | 0 kts | 48° |
| 2026-04-24 04:35 | 32.91469 | 129.92084 | 24 ft | 2 kts | 48° |
| 2026-04-24 04:35 | 32.91456 | 129.92067 | 26 ft | 3 kts | 48° |
| 2026-04-24 04:35 | 32.91443 | 129.92049 | 24 ft | 3 kts | 48° |
| 2026-04-24 04:35 | 32.91429 | 129.92031 | 25 ft | 3 kts | 48° |
| 2026-04-24 04:36 | 32.91415 | 129.92013 | 27 ft | 3 kts | 48° |
| 2026-04-24 04:36 | 32.91402 | 129.91996 | 24 ft | 3 kts | 48° |
| 2026-04-24 04:36 | 32.91391 | 129.91981 | 26 ft | 3 kts | 58° |
| 2026-04-24 04:36 | 32.91385 | 129.91962 | 24 ft | 3 kts | 101° |
| 2026-04-24 04:37 | 32.91393 | 129.91943 | 26 ft | 3 kts | 134° |
| 2026-04-24 04:37 | 32.91401 | 129.91934 | 23 ft | 2 kts | 138° |
| 2026-04-24 04:42 | 32.91400 | 129.91935 | 24 ft | 1 kts | 138° |
| 2026-04-24 04:42 | 32.91387 | 129.91950 | 23 ft | 4 kts | 138° |
| 2026-04-24 04:43 | 32.91356 | 129.91983 | 22 ft | 8 kts | 137° |
| 2026-04-24 04:43 | 32.91310 | 129.92033 | 24 ft | 10 kts | 137° |
| 2026-04-24 04:43 | 32.91250 | 129.92098 | 25 ft | 12 kts | 137° |
| 2026-04-24 04:43 | 32.91181 | 129.92173 | 25 ft | 14 kts | 139° |
| 2026-04-24 04:44 | 32.91102 | 129.92255 | 23 ft | 16 kts | 139° |
| 2026-04-24 04:44 | 32.91014 | 129.92348 | 23 ft | 13 kts | 138° |
| 2026-04-24 04:44 | 32.90970 | 129.92396 | 24 ft | 10 kts | 138° |
| 2026-04-24 04:44 | 32.90913 | 129.92457 | 24 ft | 12 kts | 138° |
| 2026-04-24 04:45 | 32.90848 | 129.92525 | 26 ft | 13 kts | 147° |
| 2026-04-24 04:45 | 32.90776 | 129.92513 | 24 ft | 8 kts | 226° |
| 2026-04-24 04:45 | 32.90734 | 129.92458 | 25 ft | 10 kts | 228° |
| 2026-04-24 04:45 | 32.90718 | 129.92392 | 25 ft | 4 kts | 303° |
| 2026-04-24 04:46 | 32.90722 | 129.92386 | 25 ft | 2 kts | 318° |
| 2026-04-24 04:46 | 32.90727 | 129.92381 | 27 ft | 0 kts | 317° |
| 2026-04-24 04:47 | 32.90729 | 129.92379 | 26 ft | 5 kts | 317° |
| 2026-04-24 04:47 | 32.90898 | 129.92196 | 24 ft | 69 kts | 319° |
| 2026-04-24 04:47 | 32.91441 | 129.91620 | 20 ft | 136 kts | 318° |
| 2026-04-24 04:48 | 32.92258 | 129.90732 | 168 ft | 169 kts | 321° |
| 2026-04-24 04:48 | 32.93126 | 129.89767 | 995 ft | 167 kts | 321° |
| 2026-04-24 04:48 | 32.94036 | 129.88901 | 1706 ft | 169 kts | 328° |
| 2026-04-24 04:48 | 32.95015 | 129.88122 | 2339 ft | 170 kts | 331° |
| 2026-04-24 04:49 | 32.95993 | 129.87333 | 2963 ft | 169 kts | 328° |
| 2026-04-24 04:49 | 32.96983 | 129.86483 | 3435 ft | 184 kts | 327° |
| 2026-04-24 04:49 | 32.98061 | 129.85539 | 3859 ft | 200 kts | 326° |
| 2026-04-24 04:49 | 32.99130 | 129.84601 | 4337 ft | 214 kts | 325° |
| 2026-04-24 04:50 | 33.00382 | 129.83503 | 4805 ft | 234 kts | 325° |
| 2026-04-24 04:50 | 33.01756 | 129.82298 | 5237 ft | 254 kts | 324° |
| 2026-04-24 04:50 | 33.03225 | 129.81009 | 5761 ft | 269 kts | 324° |
| 2026-04-24 04:50 | 33.04257 | 129.80102 | 6243 ft | 273 kts | 323° |
| 2026-04-24 04:51 | 33.05812 | 129.78735 | 7049 ft | 275 kts | 323° |
| 2026-04-24 04:51 | 33.07354 | 129.77378 | 7877 ft | 275 kts | 322° |
| 2026-04-24 04:51 | 33.08877 | 129.76038 | 8709 ft | 276 kts | 321° |
| 2026-04-24 04:51 | 33.10454 | 129.74654 | 9496 ft | 283 kts | 323° |
| 2026-04-24 04:52 | 33.12282 | 129.73662 | 10122 ft | 295 kts | 344° |
| 2026-04-24 04:52 | 33.14401 | 129.73523 | 10479 ft | 316 kts | 0° |
| 2026-04-24 04:52 | 33.16662 | 129.73743 | 10773 ft | 334 kts | 2° |
| 2026-04-24 04:52 | 33.19039 | 129.73988 | 11073 ft | 352 kts | 2° |
| 2026-04-24 04:53 | 33.21524 | 129.74222 | 11522 ft | 362 kts | 1° |
| 2026-04-24 04:53 | 33.24054 | 129.74446 | 12169 ft | 366 kts | 1° |
| 2026-04-24 04:53 | 33.26612 | 129.74666 | 12847 ft | 371 kts | 0° |
| 2026-04-24 04:53 | 33.29206 | 129.74881 | 13522 ft | 375 kts | 360° |
| 2026-04-24 04:54 | 33.31829 | 129.75096 | 14138 ft | 379 kts | 360° |
| 2026-04-24 04:54 | 33.34473 | 129.75313 | 14712 ft | 383 kts | 360° |
| 2026-04-24 04:54 | 33.37147 | 129.75532 | 15305 ft | 387 kts | 359° |
| 2026-04-24 04:54 | 33.39842 | 129.75752 | 15908 ft | 389 kts | 359° |
| 2026-04-24 04:55 | 33.42558 | 129.75975 | 16494 ft | 393 kts | 359° |
| 2026-04-24 04:55 | 33.45296 | 129.76199 | 17079 ft | 396 kts | 359° |
| 2026-04-24 04:55 | 33.48061 | 129.76427 | 17660 ft | 400 kts | 359° |
| 2026-04-24 04:55 | 33.50852 | 129.76657 | 18222 ft | 403 kts | 359° |
| 2026-04-24 04:56 | 33.53660 | 129.76887 | 18702 ft | 406 kts | 359° |
| 2026-04-24 04:56 | 33.56489 | 129.77117 | 19183 ft | 409 kts | 358° |
| 2026-04-24 04:56 | 33.59349 | 129.77351 | 19653 ft | 412 kts | 358° |
| 2026-04-24 04:56 | 33.62227 | 129.77587 | 20114 ft | 416 kts | 358° |
| 2026-04-24 04:57 | 33.65120 | 129.77825 | 20572 ft | 419 kts | 358° |
| 2026-04-24 04:57 | 33.68046 | 129.78067 | 21015 ft | 422 kts | 358° |
| 2026-04-24 04:57 | 33.70987 | 129.78309 | 21468 ft | 426 kts | 358° |
| 2026-04-24 04:57 | 33.73961 | 129.78554 | 21911 ft | 429 kts | 357° |
| 2026-04-24 04:58 | 33.76955 | 129.78800 | 22351 ft | 433 kts | 357° |
| 2026-04-24 04:58 | 33.79973 | 129.79050 | 22781 ft | 436 kts | 357° |
| 2026-04-24 04:58 | 33.83006 | 129.79300 | 23189 ft | 439 kts | 357° |
| 2026-04-24 04:58 | 33.86071 | 129.79554 | 23608 ft | 442 kts | 356° |
| 2026-04-24 04:59 | 33.89156 | 129.79806 | 23947 ft | 445 kts | 356° |
| 2026-04-24 04:59 | 33.92254 | 129.80063 | 24306 ft | 448 kts | 357° |
| 2026-04-24 04:59 | 33.95375 | 129.80326 | 24674 ft | 450 kts | 357° |
| 2026-04-24 04:59 | 33.98512 | 129.80585 | 25024 ft | 452 kts | 357° |
| 2026-04-24 05:00 | 34.01662 | 129.80847 | 25379 ft | 454 kts | 357° |
| 2026-04-24 05:00 | 34.04829 | 129.81110 | 25722 ft | 456 kts | 357° |
| 2026-04-24 05:00 | 34.07967 | 129.81372 | 26053 ft | 459 kts | 357° |
| 2026-04-24 05:00 | 34.11164 | 129.81638 | 26384 ft | 461 kts | 357° |
| 2026-04-24 05:01 | 34.14372 | 129.81905 | 26703 ft | 463 kts | 357° |
| 2026-04-24 05:01 | 34.17603 | 129.82175 | 27026 ft | 465 kts | 357° |
| 2026-04-24 05:01 | 34.20842 | 129.82434 | 27324 ft | 467 kts | 356° |
| 2026-04-24 05:01 | 34.24053 | 129.82288 | 27594 ft | 458 kts | 344° |
| 2026-04-24 05:02 | 34.27097 | 129.81321 | 27871 ft | 447 kts | 331° |
| 2026-04-24 05:02 | 34.29807 | 129.79582 | 28160 ft | 437 kts | 318° |
| 2026-04-24 05:02 | 34.32204 | 129.77358 | 28545 ft | 432 kts | 314° |
| 2026-04-24 05:02 | 34.34533 | 129.75079 | 28967 ft | 431 kts | 314° |
| 2026-04-24 05:03 | 34.36874 | 129.72803 | 29378 ft | 430 kts | 314° |
| 2026-04-24 05:03 | 34.39212 | 129.70547 | 29775 ft | 429 kts | 314° |
| 2026-04-24 05:03 | 34.41539 | 129.68306 | 30142 ft | 428 kts | 314° |
| 2026-04-24 05:03 | 34.43880 | 129.66047 | 30463 ft | 427 kts | 314° |
| 2026-04-24 05:04 | 34.46198 | 129.63807 | 30788 ft | 426 kts | 314° |
| 2026-04-24 05:04 | 34.48525 | 129.61568 | 31099 ft | 426 kts | 314° |
| 2026-04-24 05:04 | 34.50847 | 129.59346 | 31381 ft | 425 kts | 314° |
| 2026-04-24 05:04 | 34.53176 | 129.57113 | 31683 ft | 424 kts | 313° |
| 2026-04-24 05:05 | 34.55493 | 129.54888 | 31974 ft | 424 kts | 313° |
| 2026-04-24 05:05 | 34.57801 | 129.52667 | 32074 ft | 424 kts | 313° |
| 2026-04-24 05:05 | 34.62421 | 129.48212 | 32085 ft | 423 kts | 313° |
| 2026-04-24 05:06 | 34.67055 | 129.43736 | 32068 ft | 422 kts | 313° |
| 2026-04-24 05:06 | 34.71685 | 129.39261 | 32066 ft | 422 kts | 313° |
| 2026-04-24 05:07 | 34.76256 | 129.34835 | 32065 ft | 422 kts | 313° |
| 2026-04-24 05:07 | 34.80841 | 129.30382 | 32080 ft | 422 kts | 313° |
| 2026-04-24 05:08 | 34.85449 | 129.25935 | 32080 ft | 421 kts | 313° |
| 2026-04-24 05:08 | 34.89908 | 129.21623 | 32082 ft | 421 kts | 313° |
| 2026-04-24 05:09 | 34.94495 | 129.17188 | 32085 ft | 421 kts | 314° |
| 2026-04-24 05:09 | 34.99050 | 129.12772 | 32086 ft | 420 kts | 314° |
| 2026-04-24 05:10 | 35.03633 | 129.08323 | 32087 ft | 420 kts | 314° |
| 2026-04-24 05:10 | 35.08218 | 129.03867 | 32092 ft | 420 kts | 314° |
| 2026-04-24 05:11 | 35.12913 | 128.99587 | 32080 ft | 428 kts | 322° |
| 2026-04-24 05:11 | 35.18310 | 128.96320 | 32089 ft | 433 kts | 327° |
| 2026-04-24 05:12 | 35.23789 | 128.93132 | 32086 ft | 433 kts | 326° |
| 2026-04-24 05:12 | 35.28309 | 128.90465 | 32091 ft | 433 kts | 326° |
| 2026-04-24 05:13 | 35.36461 | 128.85641 | 32086 ft | 433 kts | 326° |
| 2026-04-24 05:14 | 35.41893 | 128.82416 | 32084 ft | 433 kts | 326° |
| 2026-04-24 05:14 | 35.47322 | 128.79190 | 32082 ft | 433 kts | 326° |
| 2026-04-24 05:15 | 35.52751 | 128.75963 | 32085 ft | 434 kts | 326° |
| 2026-04-24 05:15 | 35.58191 | 128.72721 | 32088 ft | 434 kts | 326° |
| 2026-04-24 05:16 | 35.63602 | 128.69491 | 32088 ft | 434 kts | 326° |
| 2026-04-24 05:16 | 35.69045 | 128.66237 | 32086 ft | 434 kts | 326° |
| 2026-04-24 05:17 | 35.74486 | 128.62978 | 32092 ft | 434 kts | 326° |
| 2026-04-24 05:17 | 35.79895 | 128.59659 | 32081 ft | 430 kts | 322° |
| 2026-04-24 05:17 | 35.82296 | 128.57551 | 32086 ft | 419 kts | 311° |
| 2026-04-24 05:18 | 35.84445 | 128.55079 | 32091 ft | 416 kts | 308° |
| 2026-04-24 05:18 | 35.88582 | 128.50089 | 32086 ft | 416 kts | 308° |
| 2026-04-24 05:19 | 35.92711 | 128.45155 | 32078 ft | 416 kts | 308° |
| 2026-04-24 05:19 | 35.96893 | 128.40176 | 32076 ft | 415 kts | 308° |
| 2026-04-24 05:20 | 36.01058 | 128.35211 | 32077 ft | 415 kts | 308° |
| 2026-04-24 05:20 | 36.05208 | 128.30250 | 32076 ft | 415 kts | 308° |
| 2026-04-24 05:21 | 36.09367 | 128.25272 | 32075 ft | 416 kts | 308° |
| 2026-04-24 05:21 | 36.13551 | 128.20258 | 32061 ft | 416 kts | 308° |
| 2026-04-24 05:22 | 36.17742 | 128.15233 | 32065 ft | 417 kts | 308° |
| 2026-04-24 05:22 | 36.21932 | 128.10198 | 32070 ft | 417 kts | 308° |
| 2026-04-24 05:23 | 36.26266 | 128.05315 | 32055 ft | 426 kts | 316° |
| 2026-04-24 05:23 | 36.28858 | 128.03452 | 32051 ft | 439 kts | 328° |
| 2026-04-24 05:23 | 36.31833 | 128.02325 | 31881 ft | 452 kts | 342° |
| 2026-04-24 05:23 | 36.35028 | 128.01852 | 31535 ft | 459 kts | 347° |
| 2026-04-24 05:24 | 36.38217 | 128.01501 | 31271 ft | 461 kts | 347° |
| 2026-04-24 05:24 | 36.41417 | 128.01126 | 31018 ft | 461 kts | 346° |
| 2026-04-24 05:24 | 36.44609 | 128.00711 | 30779 ft | 461 kts | 346° |
| 2026-04-24 05:24 | 36.47792 | 128.00277 | 30533 ft | 459 kts | 346° |
| 2026-04-24 05:25 | 36.50977 | 127.99837 | 30296 ft | 458 kts | 346° |
| 2026-04-24 05:25 | 36.54136 | 127.99403 | 30054 ft | 456 kts | 346° |
| 2026-04-24 05:25 | 36.57296 | 127.98974 | 29777 ft | 454 kts | 346° |
| 2026-04-24 05:25 | 36.60424 | 127.98551 | 29478 ft | 451 kts | 347° |
| 2026-04-24 05:26 | 36.63529 | 127.98130 | 28896 ft | 446 kts | 347° |
| 2026-04-24 05:26 | 36.66613 | 127.97709 | 28241 ft | 443 kts | 347° |
| 2026-04-24 05:26 | 36.69678 | 127.97288 | 27596 ft | 440 kts | 347° |
| 2026-04-24 05:26 | 36.72723 | 127.96870 | 26930 ft | 438 kts | 348° |
| 2026-04-24 05:27 | 36.75742 | 127.96460 | 26265 ft | 436 kts | 348° |
| 2026-04-24 05:27 | 36.78750 | 127.96045 | 25628 ft | 433 kts | 348° |
| 2026-04-24 05:27 | 36.81666 | 127.95302 | 25007 ft | 422 kts | 337° |
| 2026-04-24 05:27 | 36.84290 | 127.93761 | 24382 ft | 412 kts | 323° |
| 2026-04-24 05:28 | 36.86464 | 127.91497 | 23771 ft | 403 kts | 309° |
| 2026-04-24 05:28 | 36.88163 | 127.88750 | 23111 ft | 397 kts | 302° |
| 2026-04-24 05:28 | 36.89730 | 127.85885 | 22463 ft | 394 kts | 302° |
| 2026-04-24 05:28 | 36.91275 | 127.83061 | 21840 ft | 391 kts | 302° |
| 2026-04-24 05:29 | 36.92817 | 127.80277 | 21239 ft | 387 kts | 303° |
| 2026-04-24 05:29 | 36.94358 | 127.77518 | 20656 ft | 384 kts | 303° |
| 2026-04-24 05:29 | 36.95885 | 127.74802 | 20108 ft | 381 kts | 303° |
| 2026-04-24 05:29 | 36.97405 | 127.72100 | 19576 ft | 378 kts | 304° |
| 2026-04-24 05:30 | 36.98914 | 127.69416 | 19058 ft | 375 kts | 304° |
| 2026-04-24 05:30 | 37.00409 | 127.66751 | 18580 ft | 373 kts | 304° |
| 2026-04-24 05:30 | 37.01884 | 127.64117 | 18168 ft | 365 kts | 304° |
| 2026-04-24 05:30 | 37.03315 | 127.61560 | 17956 ft | 351 kts | 304° |
| 2026-04-24 05:31 | 37.04705 | 127.59076 | 17498 ft | 345 kts | 304° |
| 2026-04-24 05:31 | 37.05633 | 127.57417 | 17073 ft | 344 kts | 304° |
| 2026-04-24 05:31 | 37.06985 | 127.54996 | 16483 ft | 343 kts | 304° |
| 2026-04-24 05:31 | 37.08369 | 127.52515 | 15913 ft | 341 kts | 305° |
| 2026-04-24 05:32 | 37.10164 | 127.49293 | 15244 ft | 338 kts | 305° |
| 2026-04-24 05:32 | 37.11061 | 127.47683 | 15081 ft | 339 kts | 305° |
| 2026-04-24 05:32 | 37.12413 | 127.45257 | 15014 ft | 339 kts | 305° |
| 2026-04-24 05:32 | 37.13779 | 127.42800 | 15019 ft | 338 kts | 305° |
| 2026-04-24 05:33 | 37.15115 | 127.40396 | 15031 ft | 340 kts | 305° |
| 2026-04-24 05:33 | 37.16490 | 127.37947 | 15027 ft | 338 kts | 308° |
| 2026-04-24 05:33 | 37.18103 | 127.35871 | 14837 ft | 328 kts | 318° |
| 2026-04-24 05:34 | 37.21622 | 127.32164 | 13528 ft | 332 kts | 321° |
| 2026-04-24 05:34 | 37.23404 | 127.30311 | 12985 ft | 330 kts | 321° |
| 2026-04-24 05:34 | 37.25193 | 127.28446 | 12426 ft | 329 kts | 321° |
| 2026-04-24 05:34 | 37.26927 | 127.26633 | 12041 ft | 327 kts | 321° |
| 2026-04-24 05:35 | 37.28667 | 127.24810 | 11930 ft | 328 kts | 321° |
| 2026-04-24 05:35 | 37.30403 | 127.22817 | 11943 ft | 334 kts | 311° |
| 2026-04-24 05:35 | 37.31570 | 127.20245 | 11950 ft | 342 kts | 290° |
| 2026-04-24 05:35 | 37.31955 | 127.17237 | 11952 ft | 348 kts | 270° |
| 2026-04-24 05:36 | 37.31476 | 127.14215 | 11973 ft | 352 kts | 250° |
| 2026-04-24 05:36 | 37.30202 | 127.11572 | 11984 ft | 358 kts | 230° |
| 2026-04-24 05:36 | 37.28420 | 127.09377 | 11991 ft | 358 kts | 223° |
| 2026-04-24 05:36 | 37.26566 | 127.07370 | 11783 ft | 344 kts | 221° |
| 2026-04-24 05:37 | 37.24773 | 127.05474 | 11497 ft | 330 kts | 221° |
| 2026-04-24 05:37 | 37.23059 | 127.03666 | 11187 ft | 317 kts | 221° |
| 2026-04-24 05:37 | 37.21205 | 127.02101 | 10846 ft | 307 kts | 202° |
| 2026-04-24 05:37 | 37.19166 | 127.01339 | 10510 ft | 299 kts | 193° |
| 2026-04-24 05:38 | 37.17134 | 127.00796 | 10141 ft | 296 kts | 191° |
| 2026-04-24 05:38 | 37.15199 | 126.99953 | 9626 ft | 297 kts | 211° |
| 2026-04-24 05:38 | 37.13698 | 126.98229 | 9247 ft | 291 kts | 236° |
| 2026-04-24 05:38 | 37.12802 | 126.95989 | 9017 ft | 282 kts | 249° |
| 2026-04-24 05:39 | 37.12124 | 126.93719 | 8705 ft | 278 kts | 251° |
| 2026-04-24 05:39 | 37.11700 | 126.91376 | 8250 ft | 277 kts | 270° |
| 2026-04-24 05:39 | 37.12024 | 126.89024 | 7840 ft | 274 kts | 288° |
| 2026-04-24 05:39 | 37.12642 | 126.86767 | 7472 ft | 273 kts | 290° |
| 2026-04-24 05:40 | 37.13298 | 126.84539 | 7120 ft | 273 kts | 291° |
| 2026-04-24 05:40 | 37.13965 | 126.82305 | 6747 ft | 272 kts | 291° |
| 2026-04-24 05:40 | 37.14643 | 126.80056 | 6375 ft | 273 kts | 291° |
| 2026-04-24 05:40 | 37.15317 | 126.77836 | 5996 ft | 273 kts | 291° |
| 2026-04-24 05:41 | 37.15993 | 126.75610 | 5579 ft | 273 kts | 291° |
| 2026-04-24 05:41 | 37.16663 | 126.73399 | 5205 ft | 270 kts | 291° |
| 2026-04-24 05:41 | 37.17545 | 126.71352 | 4966 ft | 263 kts | 308° |
| 2026-04-24 05:41 | 37.18861 | 126.69745 | 4943 ft | 264 kts | 326° |
| 2026-04-24 05:42 | 37.20312 | 126.68540 | 4976 ft | 265 kts | 329° |
| 2026-04-24 05:42 | 37.21875 | 126.67296 | 4993 ft | 264 kts | 329° |
| 2026-04-24 05:42 | 37.23436 | 126.66061 | 4996 ft | 262 kts | 328° |
| 2026-04-24 05:42 | 37.24969 | 126.64806 | 4973 ft | 263 kts | 327° |
| 2026-04-24 05:43 | 37.26451 | 126.63510 | 4928 ft | 255 kts | 326° |
| 2026-04-24 05:43 | 37.27871 | 126.62256 | 4812 ft | 244 kts | 326° |
| 2026-04-24 05:43 | 37.29238 | 126.61044 | 4600 ft | 239 kts | 326° |
| 2026-04-24 05:43 | 37.30594 | 126.59840 | 4304 ft | 237 kts | 326° |
| 2026-04-24 05:44 | 37.31938 | 126.58648 | 3946 ft | 234 kts | 326° |
| 2026-04-24 05:44 | 37.33280 | 126.57456 | 3579 ft | 232 kts | 326° |
| 2026-04-24 05:44 | 37.34588 | 126.56294 | 3242 ft | 229 kts | 326° |
| 2026-04-24 05:44 | 37.35970 | 126.55278 | 3398 ft | 242 kts | 345° |
| 2026-04-24 05:45 | 37.37673 | 126.55112 | 3999 ft | 252 kts | 7° |
| 2026-04-24 05:45 | 37.39429 | 126.55429 | 4847 ft | 256 kts | 11° |
| 2026-04-24 05:45 | 37.41197 | 126.55804 | 5525 ft | 261 kts | 11° |
| 2026-04-24 05:45 | 37.42430 | 126.56085 | 5795 ft | 262 kts | 14° |
| 2026-04-24 05:46 | 37.44067 | 126.57028 | 5953 ft | 261 kts | 39° |
| 2026-04-24 05:46 | 37.45217 | 126.58777 | 6004 ft | 260 kts | 65° |
| 2026-04-24 05:46 | 37.45649 | 126.60963 | 6028 ft | 260 kts | 86° |
| 2026-04-24 05:46 | 37.45684 | 126.63264 | 6032 ft | 259 kts | 90° |
| 2026-04-24 05:47 | 37.45666 | 126.65517 | 5988 ft | 259 kts | 91° |
| 2026-04-24 05:47 | 37.45643 | 126.67836 | 5977 ft | 259 kts | 91° |
| 2026-04-24 05:47 | 37.45427 | 126.70082 | 5970 ft | 259 kts | 109° |
| 2026-04-24 05:47 | 37.44519 | 126.72029 | 5977 ft | 259 kts | 128° |
| 2026-04-24 05:48 | 37.43357 | 126.73759 | 5988 ft | 259 kts | 130° |
| 2026-04-24 05:48 | 37.42164 | 126.75463 | 5977 ft | 259 kts | 131° |
| 2026-04-24 05:48 | 37.40979 | 126.77148 | 5966 ft | 258 kts | 131° |
| 2026-04-24 05:48 | 37.39791 | 126.78836 | 5982 ft | 258 kts | 131° |
| 2026-04-24 05:49 | 37.38575 | 126.80561 | 5994 ft | 257 kts | 131° |
| 2026-04-24 05:49 | 37.37368 | 126.82214 | 5966 ft | 259 kts | 138° |
| 2026-04-24 05:49 | 37.35800 | 126.83316 | 5885 ft | 260 kts | 162° |
| 2026-04-24 05:49 | 37.34000 | 126.83484 | 5748 ft | 261 kts | 187° |
| 2026-04-24 05:50 | 37.32294 | 126.82699 | 5619 ft | 263 kts | 212° |
| 2026-04-24 05:50 | 37.30978 | 126.81096 | 5495 ft | 267 kts | 235° |
| 2026-04-24 05:50 | 37.30075 | 126.79041 | 5389 ft | 269 kts | 242° |
| 2026-04-24 05:50 | 37.29242 | 126.76930 | 5173 ft | 266 kts | 242° |
| 2026-04-24 05:51 | 37.28417 | 126.74878 | 4977 ft | 263 kts | 242° |
| 2026-04-24 05:51 | 37.27602 | 126.72893 | 4938 ft | 250 kts | 241° |
| 2026-04-24 05:51 | 37.26808 | 126.70990 | 4944 ft | 240 kts | 241° |
| 2026-04-24 05:51 | 37.26033 | 126.69153 | 4961 ft | 241 kts | 240° |
| 2026-04-24 05:52 | 37.25294 | 126.67257 | 4975 ft | 242 kts | 250° |
| 2026-04-24 05:52 | 37.25220 | 126.65173 | 4975 ft | 243 kts | 285° |
| 2026-04-24 05:52 | 37.26071 | 126.63360 | 4700 ft | 243 kts | 320° |
| 2026-04-24 05:52 | 37.27455 | 126.62166 | 4418 ft | 240 kts | 329° |
| 2026-04-24 05:53 | 37.28873 | 126.61073 | 4099 ft | 238 kts | 330° |
| 2026-04-24 05:53 | 37.30297 | 126.59989 | 3753 ft | 235 kts | 329° |
| 2026-04-24 05:53 | 37.31655 | 126.58885 | 3426 ft | 230 kts | 326° |
| 2026-04-24 05:53 | 37.32960 | 126.57738 | 3105 ft | 226 kts | 326° |
| 2026-04-24 05:54 | 37.34237 | 126.56606 | 2839 ft | 215 kts | 326° |
| 2026-04-24 05:54 | 37.35426 | 126.55550 | 2604 ft | 207 kts | 326° |
| 2026-04-24 05:54 | 37.36584 | 126.54521 | 2310 ft | 198 kts | 326° |
| 2026-04-24 05:54 | 37.37681 | 126.53545 | 2013 ft | 189 kts | 326° |
| 2026-04-24 05:55 | 37.38717 | 126.52625 | 1791 ft | 175 kts | 326° |
| 2026-04-24 05:55 | 37.39650 | 126.51795 | 1548 ft | 152 kts | 326° |
| 2026-04-24 05:55 | 37.40463 | 126.51072 | 1311 ft | 140 kts | 325° |
| 2026-04-24 05:55 | 37.41255 | 126.50367 | 1129 ft | 138 kts | 324° |
| 2026-04-24 05:56 | 37.42043 | 126.49666 | 948 ft | 136 kts | 323° |
| 2026-04-24 05:56 | 37.42805 | 126.48987 | 760 ft | 133 kts | 322° |
| 2026-04-24 05:56 | 37.43563 | 126.48314 | 575 ft | 130 kts | 323° |
| 2026-04-24 05:56 | 37.44310 | 126.47673 | 376 ft | 130 kts | 323° |
| 2026-04-24 05:57 | 37.45043 | 126.47012 | 215 ft | 129 kts | 322° |
| 2026-04-24 05:57 | 37.45772 | 126.46352 | 50 ft | 129 kts | 322° |
| 2026-04-24 05:57 | 37.46453 | 126.45743 | 36 ft | 102 kts | 325° |
| 2026-04-24 05:57 | 37.46867 | 126.45375 | 38 ft | 43 kts | 327° |
| 2026-04-24 05:58 | 37.47113 | 126.45151 | 38 ft | 44 kts | 320° |
| 2026-04-24 05:58 | 37.47264 | 126.44858 | 38 ft | 15 kts | 295° |
| 2026-04-24 05:58 | 37.47310 | 126.44738 | 38 ft | 16 kts | 303° |
| 2026-04-24 05:58 | 37.47378 | 126.44633 | 38 ft | 5 kts | 285° |
| 2026-04-24 05:59 | 37.47368 | 126.44591 | 38 ft | 7 kts | 232° |
| 2026-04-24 05:59 | 37.47333 | 126.44532 | 38 ft | 10 kts | 234° |
| 2026-04-24 05:59 | 37.47286 | 126.44449 | 38 ft | 13 kts | 234° |
| 2026-04-24 05:59 | 37.47228 | 126.44346 | 38 ft | 15 kts | 235° |
| 2026-04-24 06:00 | 37.47186 | 126.44270 | 38 ft | 9 kts | 235° |
| 2026-04-24 06:00 | 37.47145 | 126.44197 | 38 ft | 11 kts | 234° |
| 2026-04-24 06:00 | 37.47094 | 126.44108 | 38 ft | 14 kts | 234° |
| 2026-04-24 06:00 | 37.47036 | 126.44004 | 38 ft | 15 kts | 245° |
| 2026-04-24 06:01 | 37.47070 | 126.43911 | 38 ft | 1 kts | 332° |
| 2026-04-24 06:01 | 37.47082 | 126.43900 | 38 ft | 4 kts | 322° |
| 2026-04-24 06:01 | 37.47111 | 126.43871 | 38 ft | 7 kts | 322° |
| 2026-04-24 06:01 | 37.47160 | 126.43830 | 36 ft | 10 kts | 329° |
| 2026-04-24 06:02 | 37.47227 | 126.43779 | 36 ft | 12 kts | 327° |
| 2026-04-24 06:02 | 37.47304 | 126.43717 | 37 ft | 14 kts | 330° |
| 2026-04-24 06:02 | 37.47356 | 126.43680 | 38 ft | 12 kts | 330° |
| 2026-04-24 06:02 | 37.47431 | 126.43626 | 38 ft | 13 kts | 330° |
| 2026-04-24 06:03 | 37.47506 | 126.43574 | 37 ft | 8 kts | 326° |
| 2026-04-24 06:03 | 37.47546 | 126.43527 | 38 ft | 5 kts | 274° |
| 2026-04-24 06:03 | 37.47517 | 126.43486 | 38 ft | 4 kts | 226° |
| 2026-04-24 06:03 | 37.47497 | 126.43460 | 38 ft | 2 kts | 226° |
| 2026-04-24 06:04 | 37.47488 | 126.43448 | 38 ft | 0 kts | 226° |